Mct Almak — A8IB5 — position and weather

sailwx.info

Track history (hours):
 
Tides and Currents Weather Stations Pressure Air Temp Water Temp Dewpoint Dewpoint Depression Visibility Wind Speed Wind Dir Waves Ship Positions

Mct Almak

Last reported at 2018-Apr-01 11:10 UTC. Time now 2018-Apr-25 14:37 UTC.
Position N 10°20' W 017°42'.
Warning: this ship's position is 24 days out of date.

Length 149 m; draft 6 m.

Type: Ship (hazmat cat B). MMSI: 244630413.

Date/timePositionNaut miles runAvg speedWind from/ knotsBaromVisibWave heightAir tempDewpointWater temp
2018-Apr-01 11:10N 10°20' W 017°42'1 6.4
2018-Apr-01 11:00N 10°19' W 017°42'3 6.4
2018-Apr-01 10:30N 10°17' W 017°40'3 6.4
2018-Apr-01 09:59N 10°14' W 017°38'3 6.8
2018-Apr-01 09:30N 10°11' W 017°36'3 6.6
2018-Apr-01 09:00N 10°09' W 017°33'4 6.5
2018-Apr-01 08:24N 10°06' W 017°31'3 6.9
2018-Apr-01 07:55N 10°03' W 017°29'33 6.6
2018-Apr-01 02:57N 09°38' W 017°08'20 2.2
2018-Mar-31 17:48N 09°23' W 016°55'0 1.3
2018-Mar-31 17:29N 09°23' W 016°55'14 3.1
2018-Mar-31 13:06N 09°12' W 016°47'1 6.5
2018-Mar-31 12:58N 09°11' W 016°46'3 6.4
2018-Mar-31 12:30N 09°09' W 016°45'87 6.6
2018-Mar-30 23:14N 08°00' W 015°49'2 7.4
2018-Mar-30 23:00N 07°59' W 015°48'4 7.3
2018-Mar-30 22:30N 07°57' W 015°45'20 6.6
2018-Mar-30 19:34N 07°41' W 015°34'1 7.1
2018-Mar-30 19:30N 07°41' W 015°33'4 7.3
2018-Mar-30 19:00N 07°38' W 015°31'4 7.3
2018-Mar-30 18:30N 07°35' W 015°29'4 7.4
2018-Mar-30 18:00N 07°32' W 015°26'4 7.6
2018-Mar-30 17:30N 07°29' W 015°24'4 7.3
2018-Mar-30 17:00N 07°27' W 015°22'4 7.2
2018-Mar-30 16:30N 07°24' W 015°19'4 7.1
2018-Mar-30 16:00N 07°21' W 015°17'4 6.8
2018-Mar-30 15:27N 07°18' W 015°15'3 6.7
2018-Mar-30 15:00N 07°16' W 015°13'3 6.7
2018-Mar-30 14:30N 07°13' W 015°11'4 6.9
2018-Mar-30 13:58N 07°10' W 015°09'3 6.9
2018-Mar-30 13:30N 07°08' W 015°07'3 6.9
2018-Mar-30 13:00N 07°05' W 015°04'4 6.8
2018-Mar-30 12:29N 07°02' W 015°02'3 6.8
2018-Mar-30 12:00N 06°60' W 015°00'7 6.7
2018-Mar-30 11:00N 06°55' W 014°55'  
Track history (hours):
 
Tides and Currents Weather Stations Pressure Air Temp Water Temp Dewpoint Dewpoint Depression Visibility Wind Speed Wind Dir Waves Ship Positions

Mct Almak

Last reported at 2018-Apr-01 11:10 UTC. Time now 2018-Apr-25 14:37 UTC.
Position N 10°20' W 017°42'.
Warning: this ship's position is 24 days out of date.

Length 149 m; draft 6 m.

Type: Ship (hazmat cat B). MMSI: 244630413.

Date/timePositionNaut miles runAvg speedWind from/ knotsBaromVisibWave heightAir tempDewpointWater temp
2018-Apr-01 11:10N 10°20' W 017°42'1 6.4
2018-Apr-01 11:00N 10°19' W 017°42'3 6.4
2018-Apr-01 10:30N 10°17' W 017°40'3 6.4
2018-Apr-01 09:59N 10°14' W 017°38'3 6.8
2018-Apr-01 09:30N 10°11' W 017°36'3 6.6
2018-Apr-01 09:00N 10°09' W 017°33'4 6.5
2018-Apr-01 08:24N 10°06' W 017°31'3 6.9
2018-Apr-01 07:55N 10°03' W 017°29'33 6.6
2018-Apr-01 02:57N 09°38' W 017°08'20 2.2
2018-Mar-31 17:48N 09°23' W 016°55'0 1.3
2018-Mar-31 17:29N 09°23' W 016°55'14 3.1
2018-Mar-31 13:06N 09°12' W 016°47'1 6.5
2018-Mar-31 12:58N 09°11' W 016°46'3 6.4
2018-Mar-31 12:30N 09°09' W 016°45'87 6.6
2018-Mar-30 23:14N 08°00' W 015°49'2 7.4
2018-Mar-30 23:00N 07°59' W 015°48'4 7.3
2018-Mar-30 22:30N 07°57' W 015°45'20 6.6
2018-Mar-30 19:34N 07°41' W 015°34'1 7.1
2018-Mar-30 19:30N 07°41' W 015°33'4 7.3
2018-Mar-30 19:00N 07°38' W 015°31'4 7.3
2018-Mar-30 18:30N 07°35' W 015°29'4 7.4
2018-Mar-30 18:00N 07°32' W 015°26'4 7.6
2018-Mar-30 17:30N 07°29' W 015°24'4 7.3
2018-Mar-30 17:00N 07°27' W 015°22'4 7.2
2018-Mar-30 16:30N 07°24' W 015°19'4 7.1
2018-Mar-30 16:00N 07°21' W 015°17'4 6.8
2018-Mar-30 15:27N 07°18' W 015°15'3 6.7
2018-Mar-30 15:00N 07°16' W 015°13'3 6.7
2018-Mar-30 14:30N 07°13' W 015°11'4 6.9
2018-Mar-30 13:58N 07°10' W 015°09'3 6.9
2018-Mar-30 13:30N 07°08' W 015°07'3 6.9
2018-Mar-30 13:00N 07°05' W 015°04'4 6.8
2018-Mar-30 12:29N 07°02' W 015°02'3 6.8
2018-Mar-30 12:00N 06°60' W 015°00'7 6.7
2018-Mar-30 11:00N 06°55' W 014°55'  

Dump ship's entire track history